createdAt,value
2023-03-12T00:00:46.133Z,50.902397
2023-03-12T00:01:46.140Z,50.902409
2023-03-12T00:02:46.238Z,50.902405
2023-03-12T00:03:46.176Z,50.902390
2023-03-12T00:04:46.097Z,50.902409
2023-03-12T00:05:46.097Z,50.902409
2023-03-12T00:06:46.086Z,50.902420
2023-03-12T00:07:46.113Z,50.902409
2023-03-12T00:08:46.074Z,50.902370
2023-03-12T00:09:46.058Z,50.902424
2023-03-12T00:10:46.104Z,50.902405
2023-03-12T00:11:46.056Z,50.902393
2023-03-12T00:12:46.070Z,50.902378
2023-03-12T00:13:46.042Z,50.902370
2023-03-12T00:14:46.028Z,50.902393
2023-03-12T00:15:46.066Z,50.902401
2023-03-12T00:16:46.024Z,50.902412
2023-03-12T00:17:46.037Z,50.902409
2023-03-12T00:18:46.000Z,50.902393
2023-03-12T00:19:46.000Z,50.902390
2023-03-12T00:20:45.993Z,50.902416
2023-03-12T00:21:45.971Z,50.902454
2023-03-12T00:22:46.016Z,50.902390
2023-03-12T00:23:45.973Z,50.902386
2023-03-12T00:24:45.980Z,50.902348
2023-03-12T00:25:46.943Z,50.902374
2023-03-12T00:26:46.976Z,50.902298
2023-03-12T00:27:46.011Z,50.902374
2023-03-12T00:28:45.927Z,50.902409
2023-03-12T00:29:45.924Z,50.902424
2023-03-12T00:30:45.913Z,50.902393
2023-03-12T00:31:45.987Z,50.902412
2023-03-12T00:32:45.962Z,50.902466
2023-03-12T00:33:45.950Z,50.902416
2023-03-12T00:34:45.894Z,50.902416
2023-03-12T00:35:45.911Z,50.902390
2023-03-12T00:36:45.871Z,50.902424
2023-03-12T00:37:45.864Z,50.902466
2023-03-12T00:38:45.872Z,50.902431
2023-03-12T00:39:45.842Z,50.902374
2023-03-12T00:40:45.866Z,50.902397
2023-03-12T00:41:45.834Z,50.902393
2023-03-12T00:42:45.816Z,50.902390
2023-03-12T00:43:45.845Z,50.902374
2023-03-12T00:44:45.809Z,50.902370
2023-03-12T00:45:45.806Z,50.902328
2023-03-12T00:46:45.838Z,50.902374
2023-03-12T00:47:45.784Z,50.902386
2023-03-12T00:48:45.812Z,50.902409
2023-03-12T00:49:45.759Z,50.902401
2023-03-12T00:50:46.760Z,50.902405
2023-03-12T00:51:45.754Z,50.902390
2023-03-12T00:52:45.743Z,50.902405
2023-03-12T00:53:45.771Z,50.902359
2023-03-12T00:54:45.736Z,50.902397
2023-03-12T00:55:45.724Z,50.902325
2023-03-12T00:56:45.721Z,50.902401
2023-03-12T00:57:45.710Z,50.902424
2023-03-12T00:58:45.726Z,50.902420
2023-03-12T00:59:45.713Z,50.902420
2023-03-12T01:00:45.729Z,50.902382
2023-03-12T01:01:45.678Z,50.902386
2023-03-12T01:02:45.681Z,50.902420
2023-03-12T01:03:45.729Z,50.902412
2023-03-12T01:04:45.658Z,50.902370
2023-03-12T01:05:45.652Z,50.902420
2023-03-12T01:06:45.648Z,50.902431
2023-03-12T01:07:45.640Z,50.902367
2023-03-12T01:08:45.676Z,50.902382
2023-03-12T01:09:45.638Z,50.902409
2023-03-12T01:10:45.615Z,50.902390
2023-03-12T01:11:45.610Z,50.902401
2023-03-12T01:12:45.610Z,50.902336
2023-03-12T01:13:45.629Z,50.902382
2023-03-12T01:14:45.597Z,50.902386
2023-03-12T01:15:45.595Z,50.902359
2023-03-12T01:16:45.694Z,50.902397
2023-03-12T01:17:45.578Z,50.902378
2023-03-12T01:18:45.590Z,50.902378
2023-03-12T01:19:45.550Z,50.902397
2023-03-12T01:20:45.605Z,50.902454
2023-03-12T01:21:45.544Z,50.902355
2023-03-12T01:22:46.155Z,50.902374
2023-03-12T01:23:45.554Z,50.902397
2023-03-12T01:24:45.553Z,50.902393
2023-03-12T01:25:45.527Z,50.902439
2023-03-12T01:26:45.540Z,50.902409
2023-03-12T01:27:45.490Z,50.902359
2023-03-12T01:28:46.524Z,50.902367
2023-03-12T01:29:45.487Z,50.902370
2023-03-12T01:30:45.477Z,50.902397
2023-03-12T01:31:45.502Z,50.902378
2023-03-12T01:32:45.496Z,50.902298
2023-03-12T01:33:45.489Z,50.902348
2023-03-12T01:34:45.459Z,50.902367
2023-03-12T01:35:45.571Z,50.902393
2023-03-12T01:36:45.427Z,50.902401
2023-03-12T01:37:45.433Z,50.902386
2023-03-12T01:38:45.445Z,50.902332
2023-03-12T01:39:45.416Z,50.902374
2023-03-12T01:40:45.417Z,50.902390
2023-03-12T01:41:45.394Z,50.902382
2023-03-12T01:42:45.387Z,50.902374
2023-03-12T01:43:45.426Z,50.902382
2023-03-12T01:44:45.369Z,50.902393
2023-03-12T01:45:45.421Z,50.902378
2023-03-12T01:46:45.356Z,50.902386
2023-03-12T01:47:45.347Z,50.902409
2023-03-12T01:48:45.369Z,50.902386
2023-03-12T01:49:45.366Z,50.902378
2023-03-12T01:50:45.322Z,50.902390
2023-03-12T01:51:45.321Z,50.902390
2023-03-12T01:52:45.313Z,50.902397
2023-03-12T01:53:45.326Z,50.902393
2023-03-12T01:54:45.299Z,50.902390
2023-03-12T01:55:45.290Z,50.902390
2023-03-12T01:56:45.295Z,50.902378
2023-03-12T01:57:45.271Z,50.902386
2023-03-12T01:58:45.281Z,50.902393
2023-03-12T01:59:45.258Z,50.902401
2023-03-12T02:00:45.305Z,50.902405
2023-03-12T02:01:45.257Z,50.902401
2023-03-12T02:02:45.231Z,50.902382
2023-03-12T02:03:45.274Z,50.902386
2023-03-12T02:04:45.227Z,50.902367
2023-03-12T02:05:45.236Z,50.902386
2023-03-12T02:06:45.199Z,50.902386
2023-03-12T02:07:45.198Z,50.902397
2023-03-12T02:08:45.207Z,50.902393
2023-03-12T02:09:45.175Z,50.902386
2023-03-12T02:10:45.171Z,50.902401
2023-03-12T02:11:45.171Z,50.902401
2023-03-12T02:12:45.149Z,50.902424
2023-03-12T02:13:45.175Z,50.902412
2023-03-12T02:14:45.144Z,50.902428
2023-03-12T02:15:45.133Z,50.902420
2023-03-12T02:16:45.156Z,50.902393
2023-03-12T02:17:45.127Z,50.902397
2023-03-12T02:18:45.134Z,50.902397
2023-03-12T02:19:45.113Z,50.902378
2023-03-12T02:20:45.094Z,50.902416
2023-03-12T02:21:45.089Z,50.902355
2023-03-12T02:22:45.167Z,50.902382
2023-03-12T02:23:46.097Z,50.902370
2023-03-12T02:24:45.062Z,50.902397
2023-03-12T02:25:45.055Z,50.902378
2023-03-12T02:26:45.051Z,50.902462
2023-03-12T02:27:45.045Z,50.902454
2023-03-12T02:28:45.078Z,50.902412
2023-03-12T02:29:45.030Z,50.902386
2023-03-12T02:30:45.018Z,50.902409
2023-03-12T02:31:45.044Z,50.902409
2023-03-12T02:32:45.072Z,50.902405
2023-03-12T02:33:45.040Z,50.902390
2023-03-12T02:34:44.985Z,50.902412
2023-03-12T02:35:45.011Z,50.902382
2023-03-12T02:36:44.984Z,50.902397
2023-03-12T02:37:44.970Z,50.902409
2023-03-12T02:38:44.988Z,50.902378
2023-03-12T02:39:45.043Z,50.902344
2023-03-12T02:40:44.941Z,50.902363
2023-03-12T02:41:44.937Z,50.902367
2023-03-12T02:42:44.935Z,50.902367
2023-03-12T02:43:44.957Z,50.902416
2023-03-12T02:44:44.922Z,50.902447
2023-03-12T02:45:44.974Z,50.902428
2023-03-12T02:46:44.923Z,50.902397
2023-03-12T02:47:44.899Z,50.902409
2023-03-12T02:48:44.886Z,50.902454
2023-03-12T02:49:45.913Z,50.902409
2023-03-12T02:50:44.876Z,50.902393
2023-03-12T02:51:44.885Z,50.902458
2023-03-12T02:52:44.863Z,50.902443
2023-03-12T02:53:44.869Z,50.902447
2023-03-12T02:54:44.873Z,50.902367
2023-03-12T02:55:44.835Z,50.902416
2023-03-12T02:56:44.864Z,50.902390
2023-03-12T02:57:44.824Z,50.902382
2023-03-12T02:58:44.822Z,50.902416
2023-03-12T02:59:44.839Z,50.902458
2023-03-12T03:00:44.810Z,50.902454
2023-03-12T03:01:44.844Z,50.902405
2023-03-12T03:02:44.792Z,50.902340
2023-03-12T03:03:44.804Z,50.902382
2023-03-12T03:04:44.797Z,50.902409
2023-03-12T03:05:44.773Z,50.902294
2023-03-12T03:06:44.782Z,50.902363
2023-03-12T03:07:44.769Z,50.902382
2023-03-12T03:08:44.806Z,50.902393
2023-03-12T03:09:44.775Z,50.902420
2023-03-12T03:10:44.733Z,50.902447
2023-03-12T03:11:44.756Z,50.902412
2023-03-12T03:12:44.723Z,50.902409
2023-03-12T03:13:44.751Z,50.902386
2023-03-12T03:14:44.742Z,50.902401
2023-03-12T03:15:44.791Z,50.902370
2023-03-12T03:16:44.690Z,50.902397
2023-03-12T03:17:44.712Z,50.902405
2023-03-12T03:18:44.690Z,50.902351
2023-03-12T03:19:44.693Z,50.902458
2023-03-12T03:20:44.664Z,50.902439
2023-03-12T03:21:44.679Z,50.902386
2023-03-12T03:22:44.720Z,50.902409
2023-03-12T03:23:44.655Z,50.902401
2023-03-12T03:24:44.672Z,50.902420
2023-03-12T03:25:44.630Z,50.902451
2023-03-12T03:26:44.629Z,50.902378
2023-03-12T03:27:44.611Z,50.902428
2023-03-12T03:28:44.596Z,50.902405
2023-03-12T03:29:44.622Z,50.902420
2023-03-12T03:30:44.675Z,50.902412
2023-03-12T03:31:44.583Z,50.902397
2023-03-12T03:32:44.607Z,50.902416
2023-03-12T03:33:44.598Z,50.902447
2023-03-12T03:34:44.588Z,50.902420
2023-03-12T03:35:44.569Z,50.902443
2023-03-12T03:36:44.551Z,50.902424
2023-03-12T03:37:44.553Z,50.902435
2023-03-12T03:38:44.531Z,50.902428
2023-03-12T03:39:44.558Z,50.902447
2023-03-12T03:40:44.536Z,50.902435
2023-03-12T03:41:44.554Z,50.902439
2023-03-12T03:42:44.497Z,50.902435
2023-03-12T03:43:44.490Z,50.902435
2023-03-12T03:44:44.541Z,50.902473
2023-03-12T03:45:44.482Z,50.902493
2023-03-12T03:46:44.479Z,50.902466
2023-03-12T03:47:44.472Z,50.902451
2023-03-12T03:48:44.494Z,50.902454
2023-03-12T03:49:44.474Z,50.902481
2023-03-12T03:50:44.438Z,50.902443
2023-03-12T03:51:44.440Z,50.902435
2023-03-12T03:52:44.426Z,50.902443
2023-03-12T03:53:44.477Z,50.902473
2023-03-12T03:54:44.439Z,50.902466
2023-03-12T03:55:44.409Z,50.902428
2023-03-12T03:56:44.398Z,50.902401
2023-03-12T03:57:44.395Z,50.902439
2023-03-12T03:58:44.405Z,50.902462
2023-03-12T03:59:44.404Z,50.902443
2023-03-12T04:00:44.377Z,50.902550
2023-03-12T04:01:44.363Z,50.902424
2023-03-12T04:02:44.352Z,50.902374
2023-03-12T04:03:44.369Z,50.902370
2023-03-12T04:04:44.390Z,50.902409
2023-03-12T04:05:44.367Z,50.902412
2023-03-12T04:06:44.337Z,50.902416
2023-03-12T04:07:44.318Z,50.902443
2023-03-12T04:08:44.310Z,50.902443
2023-03-12T04:09:44.329Z,50.902462
2023-03-12T04:10:44.289Z,50.902462
2023-03-12T04:11:44.295Z,50.902458
2023-03-12T04:12:44.330Z,50.902481
2023-03-12T04:13:44.293Z,50.902477
2023-03-12T04:14:44.284Z,50.902470
2023-03-12T04:15:44.276Z,50.902454
2023-03-12T04:16:44.259Z,50.902424
2023-03-12T04:17:44.281Z,50.902409
2023-03-12T04:18:44.230Z,50.902416
2023-03-12T04:19:44.314Z,50.902397
2023-03-12T04:20:44.290Z,50.902447
2023-03-12T04:21:44.221Z,50.902443
2023-03-12T04:22:44.221Z,50.902454
2023-03-12T04:23:44.199Z,50.902428
2023-03-12T04:24:44.221Z,50.902378
2023-03-12T04:25:44.175Z,50.902416
2023-03-12T04:26:44.167Z,50.902416
2023-03-12T04:27:44.199Z,50.902412
2023-03-12T04:28:44.163Z,50.902405
2023-03-12T04:29:44.172Z,50.902431
2023-03-12T04:30:44.138Z,50.902431
2023-03-12T04:31:44.314Z,50.902431
2023-03-12T04:32:44.149Z,50.902401
2023-03-12T04:33:44.129Z,50.902386
2023-03-12T04:34:44.138Z,50.902405
2023-03-12T04:35:44.103Z,50.902393
2023-03-12T04:36:44.093Z,50.902420
2023-03-12T04:37:44.087Z,50.902390
2023-03-12T04:38:44.081Z,50.902370
2023-03-12T04:39:44.096Z,50.902390
2023-03-12T04:40:44.070Z,50.902420
2023-03-12T04:41:44.055Z,50.902386
2023-03-12T04:42:44.054Z,50.902344
2023-03-12T04:43:44.055Z,50.902370
2023-03-12T04:44:44.053Z,50.902412
2023-03-12T04:45:44.056Z,50.902473
2023-03-12T04:46:44.050Z,50.902443
2023-03-12T04:47:44.022Z,50.902412
2023-03-12T04:48:44.033Z,50.902390
2023-03-12T04:49:44.003Z,50.902431
2023-03-12T04:50:44.021Z,50.902435
2023-03-12T04:51:43.986Z,50.902412
2023-03-12T04:52:43.996Z,50.902397
2023-03-12T04:53:44.039Z,50.902420
2023-03-12T04:54:46.121Z,50.902401
2023-03-12T04:55:43.982Z,50.902374
2023-03-12T04:56:43.954Z,50.902431
2023-03-12T04:57:43.948Z,50.902420
2023-03-12T04:58:43.944Z,50.902435
2023-03-12T04:59:43.942Z,50.902412
2023-03-12T05:00:43.954Z,50.902382
2023-03-12T05:01:43.923Z,50.902393
2023-03-12T05:02:43.993Z,50.902370
2023-03-12T05:03:43.900Z,50.902401
2023-03-12T05:04:43.898Z,50.902351
2023-03-12T05:05:43.902Z,50.902363
2023-03-12T05:06:43.900Z,50.902386
2023-03-12T05:07:43.866Z,50.902348
2023-03-12T05:08:43.860Z,50.902382
2023-03-12T05:09:43.857Z,50.902367
2023-03-12T05:10:43.872Z,50.902386
2023-03-12T05:11:43.848Z,50.902412
2023-03-12T05:12:43.841Z,50.902428
2023-03-12T05:13:43.823Z,50.902397
2023-03-12T05:14:43.859Z,50.902340
2023-03-12T05:15:43.851Z,50.902332
2023-03-12T05:16:43.843Z,50.902412
2023-03-12T05:17:43.796Z,50.902393
2023-03-12T05:18:43.797Z,50.902431
2023-03-12T05:19:43.783Z,50.902431
2023-03-12T05:20:43.799Z,50.902416
2023-03-12T05:21:43.762Z,50.902363
2023-03-12T05:22:43.759Z,50.902416
2023-03-12T05:23:43.821Z,50.902405
2023-03-12T05:24:43.757Z,50.902405
2023-03-12T05:25:43.777Z,50.902409
2023-03-12T05:26:43.731Z,50.902401
2023-03-12T05:27:43.742Z,50.902401
2023-03-12T05:28:43.715Z,50.902386
2023-03-12T05:29:43.715Z,50.902409
2023-03-12T05:30:43.730Z,50.902405
2023-03-12T05:31:43.798Z,50.902451
2023-03-12T05:32:44.352Z,50.902504
2023-03-12T05:33:43.694Z,50.902420
2023-03-12T05:34:43.680Z,50.902409
2023-03-12T05:35:43.736Z,50.902405
2023-03-12T05:36:43.662Z,50.902412
2023-03-12T05:37:43.680Z,50.902374
2023-03-12T05:38:43.655Z,50.902390
2023-03-12T05:39:43.645Z,50.902409
2023-03-12T05:40:43.674Z,50.902405
2023-03-12T05:41:43.634Z,50.902370
2023-03-12T05:42:43.610Z,50.902412
2023-03-12T05:43:43.613Z,50.902393
2023-03-12T05:44:43.693Z,50.902332
2023-03-12T05:45:43.751Z,50.902264
2023-03-12T05:46:43.594Z,50.902245
2023-03-12T05:47:43.583Z,50.902390
2023-03-12T05:48:43.597Z,50.902359
2023-03-12T05:49:43.571Z,50.902348
2023-03-12T05:50:43.594Z,50.902325
2023-03-12T05:51:43.551Z,50.902313
2023-03-12T05:52:43.566Z,50.902294
2023-03-12T05:53:43.574Z,50.902328
2023-03-12T05:54:43.541Z,50.902317
2023-03-12T05:55:43.588Z,50.902275
2023-03-12T05:56:43.528Z,50.902298
2023-03-12T05:57:43.505Z,50.902332
2023-03-12T05:58:43.518Z,50.902370
2023-03-12T05:59:43.531Z,50.902409
2023-03-12T06:00:43.515Z,50.902321
2023-03-12T06:01:43.494Z,50.902351
2023-03-12T06:02:43.473Z,50.902390
2023-03-12T06:03:43.567Z,50.902435
2023-03-12T06:04:43.486Z,50.902370
2023-03-12T06:05:43.478Z,50.902344
2023-03-12T06:06:43.450Z,50.902401
2023-03-12T06:07:43.441Z,50.902351
2023-03-12T06:08:43.425Z,50.902328
2023-03-12T06:09:43.427Z,50.902328
2023-03-12T06:10:43.436Z,50.902325
2023-03-12T06:11:43.413Z,50.902355
2023-03-12T06:12:44.196Z,50.902325
2023-03-12T06:13:43.391Z,50.902390
2023-03-12T06:14:43.406Z,50.902336
2023-03-12T06:15:43.401Z,50.902386
2023-03-12T06:16:43.524Z,50.902306
2023-03-12T06:17:43.364Z,50.902328
2023-03-12T06:18:43.358Z,50.902363
2023-03-12T06:19:43.362Z,50.902355
2023-03-12T06:20:43.374Z,50.902454
2023-03-12T06:21:43.335Z,50.902351
2023-03-12T06:22:43.340Z,50.902378
2023-03-12T06:23:43.323Z,50.902359
2023-03-12T06:24:43.314Z,50.902367
2023-03-12T06:25:43.325Z,50.902382
2023-03-12T06:26:44.297Z,50.902328
2023-03-12T06:27:43.344Z,50.902317
2023-03-12T06:28:43.290Z,50.902328
2023-03-12T06:29:43.290Z,50.902267
2023-03-12T06:30:43.294Z,50.902283
2023-03-12T06:31:43.280Z,50.902264
2023-03-12T06:32:43.285Z,50.902325
2023-03-12T06:33:43.245Z,50.902298
2023-03-12T06:34:43.251Z,50.902340
2023-03-12T06:35:43.289Z,50.902321
2023-03-12T06:36:43.225Z,50.902290
2023-03-12T06:37:43.287Z,50.902332
2023-03-12T06:38:43.217Z,50.902359
2023-03-12T06:39:43.208Z,50.902416
2023-03-12T06:40:43.217Z,50.902325
2023-03-12T06:41:43.196Z,50.902287
2023-03-12T06:42:43.205Z,50.902245
2023-03-12T06:43:43.193Z,50.902355
2023-03-12T06:44:43.173Z,50.902363
2023-03-12T06:45:43.187Z,50.902405
2023-03-12T06:46:43.157Z,50.902363
2023-03-12T06:47:43.158Z,50.902344
2023-03-12T06:48:43.138Z,50.902348
2023-03-12T06:49:43.149Z,50.902332
2023-03-12T06:50:43.168Z,50.902317
2023-03-12T06:51:43.130Z,50.902340
2023-03-12T06:52:43.107Z,50.902344
2023-03-12T06:53:43.111Z,50.902351
2023-03-12T06:54:43.103Z,50.902355
2023-03-12T06:55:43.120Z,50.902348
2023-03-12T06:56:43.100Z,50.902351
2023-03-12T06:57:43.085Z,50.902359
2023-03-12T06:58:43.105Z,50.902370
2023-03-12T06:59:43.080Z,50.902359
2023-03-12T07:00:43.119Z,50.902367
2023-03-12T07:01:43.054Z,50.902348
2023-03-12T07:02:43.046Z,50.902340
2023-03-12T07:03:43.053Z,50.902328
2023-03-12T07:04:43.102Z,50.902351
2023-03-12T07:05:43.045Z,50.902336
2023-03-12T07:06:43.065Z,50.902309
2023-03-12T07:07:43.050Z,50.902332
2023-03-12T07:08:42.997Z,50.902344
2023-03-12T07:09:43.016Z,50.902332
2023-03-12T07:10:43.064Z,50.902348
2023-03-12T07:11:42.977Z,50.902355
2023-03-12T07:12:42.992Z,50.902382
2023-03-12T07:13:43.610Z,50.902382
2023-03-12T07:14:42.955Z,50.902386
2023-03-12T07:15:43.037Z,50.902351
2023-03-12T07:16:42.951Z,50.902386
2023-03-12T07:17:42.940Z,50.902336
2023-03-12T07:18:42.941Z,50.902340
2023-03-12T07:19:42.923Z,50.902374
2023-03-12T07:20:42.945Z,50.902355
2023-03-12T07:21:42.909Z,50.902344
2023-03-12T07:22:42.912Z,50.902363
2023-03-12T07:23:42.895Z,50.902378
2023-03-12T07:24:42.890Z,50.902351
2023-03-12T07:25:42.929Z,50.902351
2023-03-12T07:26:42.871Z,50.902348
2023-03-12T07:27:42.868Z,50.902344
2023-03-12T07:28:42.873Z,50.902348
2023-03-12T07:29:42.947Z,50.902363
2023-03-12T07:30:42.921Z,50.902405
2023-03-12T07:31:42.935Z,50.902370
2023-03-12T07:32:42.893Z,50.902355
2023-03-12T07:33:42.975Z,50.902348
2023-03-12T07:34:42.822Z,50.902344
2023-03-12T07:35:43.022Z,50.902351
2023-03-12T07:36:42.945Z,50.902317
2023-03-12T07:37:42.815Z,50.902325
2023-03-12T07:38:42.788Z,50.902390
2023-03-12T07:39:42.788Z,50.902370
2023-03-12T07:40:42.849Z,50.902374
2023-03-12T07:41:43.707Z,50.902397
2023-03-12T07:42:42.760Z,50.902393
2023-03-12T07:43:42.808Z,50.902370
2023-03-12T07:44:42.739Z,50.902481
2023-03-12T07:45:42.830Z,50.902477
2023-03-12T07:46:42.929Z,50.902409
2023-03-12T07:47:42.903Z,50.902451
2023-03-12T07:48:44.318Z,50.902466
2023-03-12T07:49:43.704Z,50.902386
2023-03-12T07:50:42.694Z,50.902386
2023-03-12T07:51:42.697Z,50.902409
2023-03-12T07:52:42.674Z,50.902374
2023-03-12T07:53:42.660Z,50.902344
2023-03-12T07:54:42.745Z,50.902378
2023-03-12T07:55:42.745Z,50.902390
2023-03-12T07:56:42.788Z,50.902367
2023-03-12T07:57:42.656Z,50.902412
2023-03-12T07:58:42.786Z,50.902451
2023-03-12T07:59:42.699Z,50.902401
2023-03-12T08:00:42.613Z,50.902359
2023-03-12T08:01:44.705Z,50.902393
2023-03-12T08:02:43.729Z,50.902390
2023-03-12T08:03:42.722Z,50.902367
2023-03-12T08:04:42.659Z,50.902397
2023-03-12T08:05:42.737Z,50.902405
2023-03-12T08:06:42.666Z,50.902401
2023-03-12T08:07:42.563Z,50.902374
2023-03-12T08:08:42.684Z,50.902390
2023-03-12T08:09:42.548Z,50.902397
2023-03-12T08:10:42.542Z,50.902370
2023-03-12T08:11:42.734Z,50.902386
2023-03-12T08:12:42.522Z,50.902405
2023-03-12T08:13:42.513Z,50.902428
2023-03-12T08:14:42.558Z,50.902462
2023-03-12T08:15:43.113Z,50.902424
2023-03-12T08:16:42.527Z,50.902401
2023-03-12T08:17:42.525Z,50.902359
2023-03-12T08:18:42.484Z,50.902443
2023-03-12T08:19:42.558Z,50.902420
2023-03-12T08:20:42.464Z,50.902367
2023-03-12T08:21:42.476Z,50.902374
2023-03-12T08:22:42.450Z,50.902393
2023-03-12T08:23:42.435Z,50.902409
2023-03-12T08:24:42.434Z,50.902405
2023-03-12T08:25:42.422Z,50.902409
2023-03-12T08:26:42.473Z,50.902370
2023-03-12T08:27:42.412Z,50.902382
2023-03-12T08:28:42.429Z,50.902378
2023-03-12T08:29:42.395Z,50.902416
2023-03-12T08:30:42.383Z,50.902393
2023-03-12T08:31:57.394Z,50.902416
2023-03-12T08:32:44.386Z,50.902412
2023-03-12T08:33:42.358Z,50.902405
2023-03-12T08:34:42.350Z,50.902393
2023-03-12T08:35:42.396Z,50.902363
2023-03-12T08:36:42.363Z,50.902378
2023-03-12T08:37:42.325Z,50.902412
2023-03-12T08:38:42.317Z,50.902431
2023-03-12T08:39:42.358Z,50.902412
2023-03-12T08:40:42.300Z,50.902401
2023-03-12T08:41:42.324Z,50.902416
2023-03-12T08:42:42.318Z,50.902405
2023-03-12T08:43:42.280Z,50.902431
2023-03-12T08:44:42.300Z,50.902405
2023-03-12T08:45:42.324Z,50.902462
2023-03-12T08:46:42.284Z,50.902382
2023-03-12T08:47:42.259Z,50.902328
2023-03-12T08:48:42.832Z,50.902397
2023-03-12T08:49:42.249Z,50.902382
2023-03-12T08:50:42.229Z,50.902405
2023-03-12T08:51:42.287Z,50.902489
2023-03-12T08:52:42.240Z,50.902546
2023-03-12T08:53:42.214Z,50.902500
2023-03-12T08:54:42.206Z,50.902443
2023-03-12T08:55:42.227Z,50.902451
2023-03-12T08:56:42.215Z,50.902424
2023-03-12T08:57:42.305Z,50.902351
2023-03-12T08:58:42.236Z,50.902397
2023-03-12T08:59:42.176Z,50.902382
2023-03-12T09:00:42.166Z,50.902412
2023-03-12T09:01:43.795Z,50.902451
2023-03-12T09:02:43.161Z,50.902439
2023-03-12T09:03:42.716Z,50.902374
2023-03-12T09:04:42.192Z,50.902386
2023-03-12T09:05:42.154Z,50.902431
2023-03-12T09:06:42.129Z,50.902363
2023-03-12T09:07:42.112Z,50.902386
2023-03-12T09:08:42.103Z,50.902428
2023-03-12T09:09:42.087Z,50.902409
2023-03-12T09:10:42.084Z,50.902420
2023-03-12T09:11:42.100Z,50.902412
2023-03-12T09:12:42.078Z,50.902393
2023-03-12T09:14:02.766Z,50.902435
2023-03-12T09:15:03.052Z,50.902420
2023-03-12T09:15:44.045Z,50.902409
2023-03-12T09:16:42.148Z,50.902565
2023-03-12T09:17:42.098Z,50.902443
2023-03-12T09:18:42.017Z,50.902424
2023-03-12T09:19:42.011Z,50.902451
2023-03-12T09:20:42.004Z,50.902424
2023-03-12T09:21:42.030Z,50.902435
2023-03-12T09:22:41.987Z,50.902466
2023-03-12T09:23:41.981Z,50.902466
2023-03-12T09:24:42.854Z,50.902378
2023-03-12T09:25:41.960Z,50.902309
2023-03-12T09:26:42.018Z,50.902367
2023-03-12T09:27:41.949Z,50.902416
2023-03-12T09:28:41.941Z,50.902451
2023-03-12T09:29:57.266Z,50.902431
2023-03-12T09:30:43.997Z,50.902405
2023-03-12T09:31:41.944Z,50.902405
2023-03-12T09:32:42.018Z,50.902431
2023-03-12T09:33:41.901Z,50.902462
2023-03-12T09:34:41.908Z,50.902485
2023-03-12T09:35:41.889Z,50.902428
2023-03-12T09:36:41.901Z,50.902493
2023-03-12T09:37:41.872Z,50.902447
2023-03-12T09:38:41.871Z,50.902412
2023-03-12T09:39:41.920Z,50.902374
2023-03-12T09:40:41.846Z,50.902462
2023-03-12T09:41:41.864Z,50.902435
2023-03-12T09:42:41.843Z,50.902435
2023-03-12T09:43:41.826Z,50.902428
2023-03-12T09:44:41.814Z,50.902477
2023-03-12T09:45:41.811Z,50.902462
2023-03-12T09:46:41.840Z,50.902470
2023-03-12T09:47:41.783Z,50.902416
2023-03-12T09:48:41.790Z,50.902374
2023-03-12T09:49:41.766Z,50.902519
2023-03-12T09:50:41.769Z,50.902454
2023-03-12T09:51:41.793Z,50.902451
2023-03-12T09:52:41.756Z,50.902424
2023-03-12T09:53:41.752Z,50.902489
2023-03-12T09:54:41.741Z,50.902443
2023-03-12T09:55:41.735Z,50.902439
2023-03-12T09:56:41.752Z,50.902439
2023-03-12T09:57:41.720Z,50.902428
2023-03-12T09:58:41.717Z,50.902462
2023-03-12T09:59:41.699Z,50.902473
2023-03-12T10:00:41.695Z,50.902481
2023-03-12T10:01:41.690Z,50.902470
2023-03-12T10:02:41.701Z,50.902447
2023-03-12T10:03:41.704Z,50.902462
2023-03-12T10:04:58.131Z,50.902473
2023-03-12T10:05:43.653Z,50.902477
2023-03-12T10:06:41.648Z,50.902493
2023-03-12T10:07:41.674Z,50.902496
2023-03-12T10:08:41.734Z,50.902485
2023-03-12T10:09:41.627Z,50.902473
2023-03-12T10:10:41.620Z,50.902473
2023-03-12T10:11:41.613Z,50.902477
2023-03-12T10:12:42.229Z,50.902466
2023-03-12T10:13:41.593Z,50.902489
2023-03-12T10:14:41.590Z,50.902473
2023-03-12T10:15:41.620Z,50.902470
2023-03-12T10:16:41.572Z,50.902451
2023-03-12T10:17:41.611Z,50.902466
2023-03-12T10:18:41.645Z,50.902451
2023-03-12T10:19:41.558Z,50.902466
2023-03-12T10:20:41.547Z,50.902458
2023-03-12T10:21:41.534Z,50.902466
2023-03-12T10:22:41.565Z,50.902462
2023-03-12T10:23:41.525Z,50.902439
2023-03-12T10:24:41.513Z,50.902470
2023-03-12T10:25:41.492Z,50.902519
2023-03-12T10:26:42.492Z,50.902512
2023-03-12T10:27:41.513Z,50.902519
2023-03-12T10:28:41.476Z,50.902519
2023-03-12T10:29:44.425Z,50.902538
2023-03-12T10:30:42.483Z,50.902554
2023-03-12T10:31:41.457Z,50.902515
2023-03-12T10:32:41.514Z,50.902473
2023-03-12T10:33:41.437Z,50.902458
2023-03-12T10:34:41.452Z,50.902462
2023-03-12T10:35:41.477Z,50.902500
2023-03-12T10:36:41.423Z,50.902489
2023-03-12T10:37:41.434Z,50.902496
2023-03-12T10:38:41.409Z,50.902470
2023-03-12T10:39:41.414Z,50.902481
2023-03-12T10:40:41.393Z,50.902508
2023-03-12T10:41:41.377Z,50.902493
2023-03-12T10:42:41.400Z,50.902489
2023-03-12T10:43:41.362Z,50.902424
2023-03-12T10:44:41.377Z,50.902439
2023-03-12T10:45:41.344Z,50.902435
2023-03-12T10:46:41.437Z,50.902393
2023-03-12T10:47:41.355Z,50.902412
2023-03-12T10:48:41.326Z,50.902451
2023-03-12T10:49:41.311Z,50.902416
2023-03-12T10:50:41.316Z,50.902420
2023-03-12T10:51:41.315Z,50.902439
2023-03-12T10:52:41.332Z,50.902428
2023-03-12T10:53:41.294Z,50.902431
2023-03-12T10:54:41.284Z,50.902431
2023-03-12T10:55:41.279Z,50.902424
2023-03-12T10:56:41.271Z,50.902378
2023-03-12T10:57:41.419Z,50.902390
2023-03-12T10:58:41.264Z,50.902393
2023-03-12T10:59:41.249Z,50.902393
2023-03-12T11:00:41.280Z,50.902420
2023-03-12T11:01:41.245Z,50.902416
2023-03-12T11:02:41.248Z,50.902397
2023-03-12T11:03:41.214Z,50.902409
2023-03-12T11:04:41.206Z,50.902393
2023-03-12T11:05:41.241Z,50.902386
2023-03-12T11:06:41.206Z,50.902393
2023-03-12T11:07:41.216Z,50.902401
2023-03-12T11:08:41.175Z,50.902405
2023-03-12T11:09:41.178Z,50.902393
2023-03-12T11:10:41.197Z,50.902405
2023-03-12T11:11:41.153Z,50.902405
2023-03-12T11:12:41.173Z,50.902405
2023-03-12T11:13:41.151Z,50.902431
2023-03-12T11:14:41.129Z,50.902412
2023-03-12T11:15:41.190Z,50.902420
2023-03-12T11:16:41.857Z,50.902393
2023-03-12T11:17:41.173Z,50.902382
2023-03-12T11:18:41.095Z,50.902435
2023-03-12T11:19:41.087Z,50.902412
2023-03-12T11:20:41.086Z,50.902401
2023-03-12T11:21:41.220Z,50.902416
2023-03-12T11:22:41.097Z,50.902428
2023-03-12T11:23:41.071Z,50.902428
2023-03-12T11:24:41.051Z,50.902420